Time,TemperatureF,DewpointF,PressureIn,WindDirection,WindDirectionDegrees,WindSpeedMPH,WindSpeedGustMPH,Humidity,HourlyPrecipIn,Conditions,Clouds,dailyrainin,SoftwareType,DateUTC
2013-07-03 00:01:00,69.3,58.3,29.89,East,101,0.0,0.0,68,0.03,,,0.03,meteohub,2013-07-03 06:01:00,
2013-07-03 00:02:00,69.3,58.3,29.90,ENE,71,0.0,0.0,68,0.03,,,0.03,meteohub,2013-07-03 06:02:00,
2013-07-03 00:08:00,69.1,58.5,29.90,ENE,78,0.0,0.0,69,0.04,,,0.00,meteohub,2013-07-03 06:08:00,
2013-07-03 00:13:00,69.1,57.2,29.89,ENE,77,0.0,0.0,66,0.04,,,0.00,meteohub,2013-07-03 06:13:00,
2013-07-03 00:14:00,69.1,57.2,29.89,East,80,0.0,0.0,66,0.04,,,0.00,meteohub,2013-07-03 06:14:00,
2013-07-03 00:19:00,69.1,58.1,29.88,ENE,78,0.0,0.0,68,0.04,,,0.00,meteohub,2013-07-03 06:19:00,
2013-07-03 00:22:00,69.1,58.1,29.88,East,80,0.0,0.0,68,0.04,,,0.00,meteohub,2013-07-03 06:22:00,
2013-07-03 00:27:00,68.9,57.9,29.87,ESE,102,0.0,0.0,68,0.03,,,0.00,meteohub,2013-07-03 06:27:00,
2013-07-03 00:29:00,69.1,57.7,29.87,East,88,0.0,0.0,67,0.03,,,0.00,meteohub,2013-07-03 06:29:00,
2013-07-03 00:31:00,69.3,57.4,29.87,East,98,0.0,0.0,66,0.02,,,0.00,meteohub,2013-07-03 06:31:00,
2013-07-03 00:35:00,69.4,57.2,29.86,East,100,0.0,0.0,65,0.02,,,0.00,meteohub,2013-07-03 06:35:00,
2013-07-03 00:40:00,70.3,57.6,29.86,ESE,102,0.0,0.0,64,0.02,,,0.00,meteohub,2013-07-03 06:40:00,
2013-07-03 00:46:00,70.7,57.6,29.86,East,94,0.0,0.0,63,0.02,,,0.00,meteohub,2013-07-03 06:46:00,
2013-07-03 00:48:00,71.2,56.7,29.86,East,82,0.0,0.0,60,0.02,,,0.00,meteohub,2013-07-03 06:48:00,
2013-07-03 00:53:00,71.4,56.8,29.85,East,90,0.0,0.0,60,0.02,,,0.00,meteohub,2013-07-03 06:53:00,
2013-07-03 00:57:00,71.4,57.7,29.85,SSW,204,0.0,0.0,62,0.01,,,0.00,meteohub,2013-07-03 06:57:00,
2013-07-03 01:05:00,71.2,57.6,29.86,SE,142,0.0,0.0,62,0.00,,,0.00,meteohub,2013-07-03 07:05:00,
2013-07-03 01:10:00,70.2,59.2,29.85,West,279,0.0,0.0,68,0.00,,,0.00,meteohub,2013-07-03 07:10:00,
2013-07-03 01:16:00,69.6,59.0,29.85,West,279,0.0,0.0,69,0.00,,,0.00,meteohub,2013-07-03 07:16:00,
2013-07-03 01:21:00,69.4,57.9,29.85,WNW,284,0.0,0.0,67,0.00,,,0.00,meteohub,2013-07-03 07:21:00,
2013-07-03 01:26:00,69.4,57.6,29.83,WNW,284,0.0,0.0,66,0.00,,,0.00,meteohub,2013-07-03 07:26:00,
2013-07-03 01:32:00,69.4,57.9,29.83,WNW,288,0.0,0.0,67,0.00,,,0.00,meteohub,2013-07-03 07:32:00,
2013-07-03 01:37:00,69.4,57.9,29.83,WNW,284,0.0,0.0,67,0.00,,,0.00,meteohub,2013-07-03 07:37:00,
2013-07-03 01:38:00,70.2,56.5,29.82,East,80,0.0,0.0,62,0.00,,,0.00,meteohub,2013-07-03 07:38:00,
2013-07-03 01:43:00,70.9,56.8,29.81,East,87,0.0,0.0,61,0.00,,,0.00,meteohub,2013-07-03 07:43:00,
2013-07-03 01:48:00,70.9,56.8,29.81,East,98,0.0,0.0,61,0.00,,,0.00,meteohub,2013-07-03 07:48:00,
2013-07-03 01:52:00,71.2,57.0,29.80,East,98,0.0,0.0,61,0.00,,,0.00,meteohub,2013-07-03 07:52:00,
2013-07-03 01:58:00,71.4,56.8,29.79,ENE,78,0.0,0.0,60,0.00,,,0.00,meteohub,2013-07-03 07:58:00,
2013-07-03 02:06:00,71.6,56.1,29.79,East,99,0.0,0.0,58,0.00,,,0.00,meteohub,2013-07-03 08:06:00,
2013-07-03 02:09:00,71.6,56.1,29.80,WSW,250,0.0,0.0,58,0.00,,,0.00,meteohub,2013-07-03 08:09:00,
2013-07-03 02:15:00,71.4,55.9,29.81,WSW,250,0.0,0.0,58,0.00,,,0.00,meteohub,2013-07-03 08:15:00,
2013-07-03 02:21:00,71.4,55.4,29.80,East,90,0.0,0.0,57,0.00,,,0.00,meteohub,2013-07-03 08:21:00,
2013-07-03 02:22:00,71.4,54.5,29.81,East,80,0.0,0.0,55,0.00,,,0.00,meteohub,2013-07-03 08:22:00,
2013-07-03 02:27:00,71.8,54.7,29.81,East,80,0.0,0.0,55,0.00,,,0.00,meteohub,2013-07-03 08:27:00,
2013-07-03 02:32:00,72.0,54.9,29.81,East,80,0.0,0.0,55,0.00,,,0.00,meteohub,2013-07-03 08:32:00,
2013-07-03 02:37:00,71.8,55.2,29.80,East,80,0.0,0.0,56,0.00,,,0.00,meteohub,2013-07-03 08:37:00,
2013-07-03 02:39:00,71.8,55.8,29.81,East,81,0.0,0.0,57,0.00,,,0.00,meteohub,2013-07-03 08:39:00,
2013-07-03 02:45:00,71.4,56.8,29.80,East,80,0.0,0.0,60,0.00,,,0.00,meteohub,2013-07-03 08:45:00,
2013-07-03 02:47:00,71.4,56.8,29.80,East,80,0.0,0.0,60,0.00,,,0.00,meteohub,2013-07-03 08:47:00,
2013-07-03 02:52:00,71.2,56.7,29.80,East,80,0.0,0.0,60,0.00,,,0.00,meteohub,2013-07-03 08:52:00,
2013-07-03 02:56:00,71.2,56.7,29.79,East,80,0.0,0.0,60,0.00,,,0.00,meteohub,2013-07-03 08:56:00,
2013-07-03 03:01:00,70.9,57.2,29.80,East,80,0.0,0.0,62,0.01,,,0.01,meteohub,2013-07-03 09:01:00,
2013-07-03 03:06:00,70.9,57.7,29.80,East,80,0.0,0.0,63,0.01,,,0.01,meteohub,2013-07-03 09:06:00,
2013-07-03 03:12:00,70.3,57.6,29.79,East,80,0.0,0.0,64,0.01,,,0.01,meteohub,2013-07-03 09:12:00,
2013-07-03 03:13:00,70.5,57.7,29.79,East,80,0.0,0.0,64,0.01,,,0.01,meteohub,2013-07-03 09:13:00,
2013-07-03 03:19:00,70.2,57.4,29.79,East,80,0.0,0.0,64,0.01,,,0.01,meteohub,2013-07-03 09:19:00,
2013-07-03 03:25:00,70.0,58.1,29.79,East,80,0.0,0.0,66,0.01,,,0.01,meteohub,2013-07-03 09:25:00,
2013-07-03 03:32:00,70.0,58.5,29.80,East,90,0.0,0.0,67,0.01,,,0.01,meteohub,2013-07-03 09:32:00,
2013-07-03 03:37:00,70.0,58.5,29.81,East,90,0.0,0.0,67,0.01,,,0.01,meteohub,2013-07-03 09:37:00,
2013-07-03 03:42:00,70.0,59.0,29.81,East,90,0.0,0.0,68,0.01,,,0.01,meteohub,2013-07-03 09:42:00,
2013-07-03 03:47:00,69.6,58.6,29.81,East,90,0.0,0.0,68,0.01,,,0.01,meteohub,2013-07-03 09:47:00,
2013-07-03 03:57:00,69.3,58.3,29.81,East,90,0.0,0.0,68,0.01,,,0.01,meteohub,2013-07-03 09:57:00,
2013-07-03 03:58:00,69.3,57.9,29.81,East,90,0.0,0.0,67,0.01,,,0.01,meteohub,2013-07-03 09:58:00,
2013-07-03 04:03:00,69.1,58.1,29.81,East,90,0.0,0.0,68,0.00,,,0.01,meteohub,2013-07-03 10:03:00,
2013-07-03 04:05:00,69.1,58.1,29.81,East,89,0.0,0.0,68,0.00,,,0.01,meteohub,2013-07-03 10:05:00,
2013-07-03 04:12:00,68.9,57.6,29.81,East,88,0.0,0.0,67,0.00,,,0.01,meteohub,2013-07-03 10:12:00,
2013-07-03 04:17:00,68.7,57.4,29.81,East,88,0.0,0.0,67,0.00,,,0.01,meteohub,2013-07-03 10:17:00,
2013-07-03 04:22:00,68.5,57.6,29.81,East,88,0.0,0.0,68,0.00,,,0.01,meteohub,2013-07-03 10:22:00,
2013-07-03 04:27:00,68.5,57.9,29.81,East,88,0.0,0.0,69,0.00,,,0.01,meteohub,2013-07-03 10:27:00,
2013-07-03 04:32:00,68.4,58.3,29.82,NNW,339,0.0,0.0,70,0.00,,,0.01,meteohub,2013-07-03 10:32:00,
2013-07-03 04:34:00,68.4,58.3,29.82,NNW,339,0.0,0.0,70,0.00,,,0.01,meteohub,2013-07-03 10:34:00,
2013-07-03 04:41:00,68.2,58.1,29.82,NNW,331,0.0,0.0,70,0.00,,,0.01,meteohub,2013-07-03 10:41:00,
2013-07-03 04:46:00,67.8,58.1,29.82,NNW,331,0.0,0.0,71,0.00,,,0.01,meteohub,2013-07-03 10:46:00,
2013-07-03 04:50:00,67.8,58.5,29.82,NNW,331,0.0,0.0,72,0.00,,,0.01,meteohub,2013-07-03 10:50:00,
2013-07-03 04:56:00,67.6,58.3,29.82,NNW,331,0.0,0.0,72,0.00,,,0.01,meteohub,2013-07-03 10:56:00,
2013-07-03 04:57:00,67.6,58.3,29.82,NNW,331,0.0,0.0,72,0.00,,,0.01,meteohub,2013-07-03 10:57:00,
2013-07-03 05:02:00,67.5,58.1,29.82,NNW,331,0.0,0.0,72,0.00,,,0.01,meteohub,2013-07-03 11:02:00,
2013-07-03 05:07:00,67.3,57.9,29.82,NNW,331,0.0,0.0,72,0.00,,,0.01,meteohub,2013-07-03 11:07:00,
2013-07-03 05:12:00,66.9,57.6,29.82,NNW,331,0.0,0.0,72,0.00,,,0.01,meteohub,2013-07-03 11:12:00,
2013-07-03 05:13:00,66.9,57.6,29.82,NNW,331,0.0,0.0,72,0.00,,,0.01,meteohub,2013-07-03 11:13:00,
2013-07-03 05:21:00,66.7,57.7,29.82,NNW,331,0.0,0.0,73,0.00,,,0.01,meteohub,2013-07-03 11:21:00,
2013-07-03 05:24:00,66.7,57.7,29.82,NNW,331,0.0,0.0,73,0.00,,,0.01,meteohub,2013-07-03 11:24:00,
2013-07-03 05:27:00,66.6,57.6,29.82,NNW,331,0.0,0.0,73,0.00,,,0.01,meteohub,2013-07-03 11:27:00,
2013-07-03 05:33:00,66.4,57.9,29.82,NNW,331,0.0,0.0,74,0.00,,,0.01,meteohub,2013-07-03 11:33:00,
2013-07-03 05:38:00,66.2,57.7,29.82,NNW,331,0.0,0.0,74,0.00,,,0.01,meteohub,2013-07-03 11:38:00,
2013-07-03 05:43:00,66.0,57.9,29.82,NNW,331,0.0,0.0,75,0.00,,,0.01,meteohub,2013-07-03 11:43:00,
2013-07-03 05:45:00,65.8,57.7,29.82,NNW,331,0.0,0.0,75,0.00,,,0.01,meteohub,2013-07-03 11:45:00,
2013-07-03 05:50:00,65.8,57.7,29.82,NNW,331,0.0,0.0,75,0.00,,,0.01,meteohub,2013-07-03 11:50:00,
2013-07-03 05:57:00,65.8,57.7,29.83,NNW,331,0.0,0.0,75,0.00,,,0.01,meteohub,2013-07-03 11:57:00,
2013-07-03 06:02:00,66.0,57.9,29.83,NNW,331,0.0,0.0,75,0.00,,,0.01,meteohub,2013-07-03 12:02:00,
2013-07-03 06:07:00,65.8,57.7,29.83,NNW,331,0.0,0.0,75,0.00,,,0.01,meteohub,2013-07-03 12:07:00,
2013-07-03 06:09:00,65.8,57.7,29.82,NNW,331,0.0,0.0,75,0.00,,,0.01,meteohub,2013-07-03 12:09:00,
2013-07-03 06:15:00,65.8,57.4,29.82,NNW,331,0.0,0.0,74,0.00,,,0.01,meteohub,2013-07-03 12:15:00,
2013-07-03 06:18:00,65.8,57.4,29.82,NNW,331,0.0,0.0,74,0.00,,,0.01,meteohub,2013-07-03 12:18:00,
2013-07-03 06:20:00,65.8,57.4,29.82,NNW,331,0.0,0.0,74,0.00,,,0.01,meteohub,2013-07-03 12:20:00,
2013-07-03 06:26:00,65.8,57.4,29.82,NNW,331,0.0,0.0,74,0.00,,,0.01,meteohub,2013-07-03 12:26:00,
2013-07-03 06:32:00,65.8,57.7,29.83,NNW,331,0.0,0.0,75,0.00,,,0.01,meteohub,2013-07-03 12:32:00,
2013-07-03 06:37:00,65.8,58.1,29.82,NNW,331,0.0,0.0,76,0.00,,,0.01,meteohub,2013-07-03 12:37:00,
2013-07-03 06:43:00,65.8,57.4,29.82,NNW,331,0.0,0.0,74,0.00,,,0.01,meteohub,2013-07-03 12:43:00,
2013-07-03 06:47:00,65.8,57.7,29.82,NNW,331,0.0,0.0,75,0.00,,,0.01,meteohub,2013-07-03 12:47:00,
2013-07-03 06:52:00,66.0,57.6,29.82,NNW,331,0.0,0.0,74,0.00,,,0.01,meteohub,2013-07-03 12:52:00,
2013-07-03 06:57:00,66.4,57.9,29.82,NNW,331,0.0,0.0,74,0.00,,,0.01,meteohub,2013-07-03 12:57:00,
2013-07-03 07:02:00,66.6,57.6,29.82,NNW,331,0.0,0.0,73,0.00,,,0.01,meteohub,2013-07-03 13:02:00,
2013-07-03 07:09:00,66.7,57.7,29.82,NNW,331,0.0,0.0,73,0.00,,,0.01,meteohub,2013-07-03 13:09:00,
2013-07-03 07:15:00,66.9,57.9,29.82,NNW,331,0.0,0.0,73,0.00,,,0.01,meteohub,2013-07-03 13:15:00,
2013-07-03 07:21:00,67.3,58.6,29.82,NNW,331,0.0,0.0,74,0.00,,,0.01,meteohub,2013-07-03 13:21:00,
2013-07-03 07:25:00,67.6,58.6,29.82,NNW,331,0.0,0.0,73,0.00,,,0.01,meteohub,2013-07-03 13:25:00,
2013-07-03 07:27:00,67.6,58.6,29.82,NNW,331,0.0,0.0,73,0.00,,,0.01,meteohub,2013-07-03 13:27:00,
2013-07-03 07:32:00,67.8,58.5,29.82,NNW,331,0.0,0.0,72,0.00,,,0.01,meteohub,2013-07-03 13:32:00,
2013-07-03 07:37:00,68.2,58.5,29.83,NNW,331,0.0,0.0,71,0.00,,,0.01,meteohub,2013-07-03 13:37:00,
2013-07-03 07:42:00,68.5,58.8,29.83,NNW,331,0.0,0.0,71,0.00,,,0.01,meteohub,2013-07-03 13:42:00,
2013-07-03 07:49:00,68.7,58.5,29.83,NNW,331,0.0,0.0,70,0.00,,,0.01,meteohub,2013-07-03 13:49:00,
2013-07-03 07:55:00,69.4,58.8,29.83,NNW,331,0.0,0.0,69,0.00,,,0.01,meteohub,2013-07-03 13:55:00,
2013-07-03 08:01:00,69.6,58.6,29.83,NW,304,0.0,0.0,68,0.00,,,0.01,meteohub,2013-07-03 14:01:00,
2013-07-03 08:07:00,70.2,59.2,29.84,NW,304,0.0,0.0,68,0.00,,,0.01,meteohub,2013-07-03 14:07:00,
2013-07-03 08:08:00,70.2,58.6,29.83,NW,304,0.0,0.0,67,0.00,,,0.01,meteohub,2013-07-03 14:08:00,
2013-07-03 08:11:00,70.2,58.6,29.83,NW,304,0.0,0.0,67,0.00,,,0.01,meteohub,2013-07-03 14:11:00,
2013-07-03 08:16:00,70.3,58.8,29.83,NW,304,0.0,0.0,67,0.00,,,0.01,meteohub,2013-07-03 14:16:00,
2013-07-03 08:17:00,70.3,58.5,29.83,NW,304,0.0,0.0,66,0.00,,,0.01,meteohub,2013-07-03 14:17:00,
2013-07-03 08:22:00,70.7,58.8,29.83,NW,304,0.0,0.0,66,0.00,,,0.01,meteohub,2013-07-03 14:22:00,
2013-07-03 08:29:00,71.2,59.4,29.84,NW,304,0.0,0.0,66,0.00,,,0.01,meteohub,2013-07-03 14:29:00,
2013-07-03 08:35:00,71.8,59.4,29.84,NW,304,0.0,0.0,65,0.00,,,0.01,meteohub,2013-07-03 14:35:00,
2013-07-03 08:36:00,72.3,59.5,29.84,NW,304,0.0,0.0,64,0.00,,,0.01,meteohub,2013-07-03 14:36:00,
2013-07-03 08:42:00,73.0,59.7,29.83,NW,304,0.0,0.0,63,0.00,,,0.01,meteohub,2013-07-03 14:42:00,
2013-07-03 08:49:00,73.4,59.2,29.84,NW,304,0.0,0.0,61,0.00,,,0.01,meteohub,2013-07-03 14:49:00,
2013-07-03 08:52:00,73.6,59.4,29.83,NW,304,0.0,0.0,61,0.00,,,0.01,meteohub,2013-07-03 14:52:00,
2013-07-03 08:57:00,73.8,59.5,29.83,NW,304,0.0,0.0,61,0.00,,,0.01,meteohub,2013-07-03 14:57:00,
2013-07-03 09:02:00,73.9,59.2,29.83,NW,304,0.0,0.0,60,0.00,,,0.01,meteohub,2013-07-03 15:02:00,
2013-07-03 09:04:00,73.9,59.2,29.83,NW,304,0.0,0.0,60,0.00,,,0.01,meteohub,2013-07-03 15:04:00,
2013-07-03 09:05:00,74.1,58.5,29.83,NW,304,0.0,0.0,58,0.00,,,0.01,meteohub,2013-07-03 15:05:00,
2013-07-03 09:10:00,74.5,59.7,29.83,NW,307,0.0,0.0,60,0.00,,,0.01,meteohub,2013-07-03 15:10:00,
2013-07-03 09:16:00,75.7,59.0,29.83,NW,309,0.0,0.0,56,0.00,,,0.01,meteohub,2013-07-03 15:16:00,
2013-07-03 09:22:00,76.5,59.2,29.82,NW,319,0.0,0.0,55,0.00,,,0.01,meteohub,2013-07-03 15:22:00,
2013-07-03 09:29:00,76.6,59.7,29.82,NW,322,0.0,0.0,56,0.00,,,0.01,meteohub,2013-07-03 15:29:00,
2013-07-03 09:30:00,77.0,59.5,29.82,NW,315,0.0,0.0,55,0.00,,,0.01,meteohub,2013-07-03 15:30:00,
2013-07-03 09:37:00,77.4,58.3,29.81,SSW,209,0.0,0.0,52,0.00,,,0.01,meteohub,2013-07-03 15:37:00,
2013-07-03 09:42:00,77.5,58.5,29.81,SSW,209,0.0,0.0,52,0.00,,,0.01,meteohub,2013-07-03 15:42:00,
2013-07-03 09:47:00,78.3,58.6,29.81,SSW,209,0.0,0.0,51,0.00,,,0.01,meteohub,2013-07-03 15:47:00,
2013-07-03 09:49:00,78.4,58.8,29.81,SSW,210,0.0,0.0,51,0.00,,,0.01,meteohub,2013-07-03 15:49:00,
2013-07-03 09:52:00,78.4,58.8,29.81,SSW,210,0.0,0.0,51,0.00,,,0.01,meteohub,2013-07-03 15:52:00,
2013-07-03 09:53:00,78.8,58.1,29.81,SSW,210,0.0,0.0,49,0.00,,,0.01,meteohub,2013-07-03 15:53:00,
2013-07-03 09:57:00,79.2,58.3,29.81,SSW,213,0.0,0.0,49,0.00,,,0.01,meteohub,2013-07-03 15:57:00,
2013-07-03 10:05:00,79.7,58.3,29.81,SW,226,0.0,0.0,48,0.00,,,0.01,meteohub,2013-07-03 16:05:00,
2013-07-03 10:10:00,79.9,58.5,29.81,SE,124,0.0,0.0,48,0.00,,,0.01,meteohub,2013-07-03 16:10:00,
2013-07-03 10:18:00,79.9,58.5,29.81,SE,144,0.0,0.0,48,0.00,,,0.01,meteohub,2013-07-03 16:18:00,
2013-07-03 10:23:00,79.7,58.8,29.81,ESE,113,0.0,0.0,49,0.00,,,0.01,meteohub,2013-07-03 16:23:00,
2013-07-03 10:31:00,80.4,59.0,29.81,ESE,113,0.0,0.0,48,0.00,,,0.01,meteohub,2013-07-03 16:31:00,
2013-07-03 10:36:00,81.1,58.5,29.81,SE,126,0.0,0.0,46,0.00,,,0.01,meteohub,2013-07-03 16:36:00,
2013-07-03 10:41:00,81.1,58.5,29.81,ESE,110,0.0,0.0,46,0.00,,,0.01,meteohub,2013-07-03 16:41:00,
2013-07-03 10:46:00,81.1,58.5,29.80,WSW,242,0.0,0.0,46,0.00,,,0.01,meteohub,2013-07-03 16:46:00,
2013-07-03 10:52:00,81.5,57.6,29.80,SE,136,0.0,0.0,44,0.00,,,0.01,meteohub,2013-07-03 16:52:00,
2013-07-03 10:57:00,81.9,58.5,29.80,SSW,192,0.0,0.0,45,0.00,,,0.01,meteohub,2013-07-03 16:57:00,
2013-07-03 11:02:00,82.2,56.8,29.80,SSW,195,0.0,0.0,42,0.00,,,0.01,meteohub,2013-07-03 17:02:00,
2013-07-03 11:07:00,82.2,56.8,29.81,East,99,0.0,0.0,42,0.00,,,0.01,meteohub,2013-07-03 17:07:00,
2013-07-03 11:13:00,82.8,56.7,29.80,East,99,0.0,0.0,41,0.00,,,0.01,meteohub,2013-07-03 17:13:00,
2013-07-03 11:21:00,83.5,56.7,29.80,SSW,192,0.0,0.0,40,0.00,,,0.01,meteohub,2013-07-03 17:21:00,
2013-07-03 11:27:00,83.8,57.0,29.80,South,191,0.0,0.0,40,0.00,,,0.01,meteohub,2013-07-03 17:27:00,
2013-07-03 11:34:00,83.8,57.6,29.80,South,191,0.0,0.0,41,0.00,,,0.01,meteohub,2013-07-03 17:34:00,
2013-07-03 11:42:00,83.7,56.1,29.79,East,98,0.0,0.0,39,0.00,,,0.01,meteohub,2013-07-03 17:42:00,
2013-07-03 11:47:00,84.0,56.5,29.79,SE,141,0.0,0.0,39,0.00,,,0.01,meteohub,2013-07-03 17:47:00,
2013-07-03 11:52:00,84.6,56.1,29.79,SE,144,0.0,0.0,38,0.00,,,0.01,meteohub,2013-07-03 17:52:00,
2013-07-03 11:57:00,84.6,56.1,29.79,WSW,252,0.0,0.0,38,0.00,,,0.01,meteohub,2013-07-03 17:57:00,
2013-07-03 12:02:00,84.2,55.8,29.78,SW,217,0.0,0.0,38,0.00,,,0.01,meteohub,2013-07-03 18:02:00,
2013-07-03 12:07:00,84.0,56.5,29.78,WNW,288,0.0,0.0,39,0.00,,,0.01,meteohub,2013-07-03 18:07:00,
2013-07-03 12:12:00,84.4,55.2,29.78,SSW,200,0.0,0.0,37,0.00,,,0.01,meteohub,2013-07-03 18:12:00,
2013-07-03 12:21:00,84.6,55.4,29.78,SW,233,0.0,0.0,37,0.00,,,0.01,meteohub,2013-07-03 18:21:00,
2013-07-03 12:26:00,84.7,53.2,29.78,SSW,205,0.0,0.0,34,0.00,,,0.01,meteohub,2013-07-03 18:26:00,
2013-07-03 12:32:00,84.7,53.2,29.78,SSW,202,0.0,0.0,34,0.00,,,0.01,meteohub,2013-07-03 18:32:00,
2013-07-03 12:37:00,85.3,53.8,29.78,SSW,206,0.0,0.0,34,0.00,,,0.01,meteohub,2013-07-03 18:37:00,
2013-07-03 12:42:00,86.2,53.8,29.78,SW,231,0.0,0.0,33,0.00,,,0.01,meteohub,2013-07-03 18:42:00,
2013-07-03 12:47:00,86.9,54.3,29.77,SSW,194,0.0,0.0,33,0.00,,,0.01,meteohub,2013-07-03 18:47:00,
2013-07-03 12:52:00,86.9,53.4,29.77,East,101,0.0,0.0,32,0.00,,,0.01,meteohub,2013-07-03 18:52:00,
2013-07-03 12:57:00,86.7,53.4,29.77,South,170,0.0,0.0,32,0.00,,,0.01,meteohub,2013-07-03 18:57:00,
2013-07-03 13:02:00,87.1,54.5,29.77,ESE,108,0.0,0.0,33,0.00,,,0.01,meteohub,2013-07-03 19:02:00,
2013-07-03 13:07:00,86.9,55.2,29.77,ESE,112,0.0,0.0,34,0.00,,,0.01,meteohub,2013-07-03 19:07:00,
2013-07-03 13:12:00,87.1,55.2,29.76,East,85,0.0,0.0,34,0.00,,,0.01,meteohub,2013-07-03 19:12:00,
2013-07-03 13:17:00,87.6,55.0,29.76,SSW,204,0.0,0.0,33,0.00,,,0.01,meteohub,2013-07-03 19:17:00,
2013-07-03 13:22:00,86.7,54.1,29.75,West,263,0.0,0.0,33,0.00,,,0.01,meteohub,2013-07-03 19:22:00,
2013-07-03 13:27:00,86.4,55.4,29.75,West,267,0.0,0.0,35,0.00,,,0.01,meteohub,2013-07-03 19:27:00,
2013-07-03 13:32:00,86.5,54.0,29.75,ESE,116,0.0,0.0,33,0.00,,,0.01,meteohub,2013-07-03 19:32:00,
2013-07-03 13:37:00,87.1,54.5,29.75,SSE,155,0.0,0.0,33,0.00,,,0.01,meteohub,2013-07-03 19:37:00,
2013-07-03 13:42:00,87.4,54.0,29.75,SSW,207,0.0,0.0,32,0.00,,,0.01,meteohub,2013-07-03 19:42:00,
2013-07-03 13:47:00,87.4,54.0,29.74,SSW,205,0.0,0.0,32,0.00,,,0.01,meteohub,2013-07-03 19:47:00,
2013-07-03 13:52:00,87.6,54.1,29.74,East,94,0.0,0.0,32,0.00,,,0.01,meteohub,2013-07-03 19:52:00,
2013-07-03 13:57:00,88.2,54.5,29.73,ESE,105,0.0,0.0,32,0.00,,,0.01,meteohub,2013-07-03 19:57:00,
2013-07-03 14:03:00,88.9,54.3,29.73,South,182,0.0,0.0,31,0.00,,,0.01,meteohub,2013-07-03 20:03:00,
2013-07-03 14:08:00,89.4,54.0,29.73,SSW,209,0.0,0.0,30,0.00,,,0.01,meteohub,2013-07-03 20:08:00,
2013-07-03 14:13:00,88.9,53.4,29.72,SSW,209,0.0,0.0,30,0.00,,,0.01,meteohub,2013-07-03 20:13:00,
2013-07-03 14:19:00,89.2,54.7,29.72,East,96,0.0,0.0,31,0.00,,,0.01,meteohub,2013-07-03 20:19:00,
2013-07-03 14:27:00,90.0,53.4,29.72,East,92,0.0,0.0,29,0.00,,,0.01,meteohub,2013-07-03 20:27:00,
2013-07-03 14:33:00,90.3,52.9,29.72,East,92,0.0,0.0,28,0.00,,,0.01,meteohub,2013-07-03 20:33:00,
2013-07-03 14:39:00,91.6,53.8,29.71,East,88,0.0,0.0,28,0.00,,,0.01,meteohub,2013-07-03 20:39:00,
2013-07-03 14:46:00,91.8,55.0,29.71,East,86,0.0,0.0,29,0.00,,,0.01,meteohub,2013-07-03 20:46:00,
2013-07-03 14:52:00,92.1,54.3,29.71,ENE,65,0.0,0.0,28,0.00,,,0.01,meteohub,2013-07-03 20:52:00,
2013-07-03 14:57:00,92.5,53.6,29.71,ENE,77,0.0,0.0,27,0.00,,,0.01,meteohub,2013-07-03 20:57:00,
2013-07-03 15:02:00,91.9,53.2,29.70,East,85,0.0,0.0,27,0.00,,,0.01,meteohub,2013-07-03 21:02:00,
2013-07-03 15:07:00,91.9,55.2,29.70,East,85,0.0,0.0,29,0.00,,,0.01,meteohub,2013-07-03 21:07:00,
2013-07-03 15:12:00,92.5,52.5,29.70,East,85,0.0,0.0,26,0.00,,,0.01,meteohub,2013-07-03 21:12:00,
2013-07-03 15:17:00,92.7,53.8,29.70,East,85,0.0,0.0,27,0.00,,,0.01,meteohub,2013-07-03 21:17:00,
2013-07-03 15:22:00,92.5,52.5,29.69,East,92,0.0,0.0,26,0.00,,,0.01,meteohub,2013-07-03 21:22:00,
2013-07-03 15:27:00,92.5,53.6,29.69,East,86,0.0,0.0,27,0.00,,,0.01,meteohub,2013-07-03 21:27:00,
2013-07-03 15:32:00,92.5,53.6,29.68,SSW,197,0.0,0.0,27,0.00,,,0.01,meteohub,2013-07-03 21:32:00,
2013-07-03 15:37:00,92.5,52.5,29.68,SSW,205,0.0,0.0,26,0.00,,,0.01,meteohub,2013-07-03 21:37:00,
2013-07-03 15:42:00,91.9,54.1,29.67,SW,223,0.0,0.0,28,0.00,,,0.01,meteohub,2013-07-03 21:42:00,
2013-07-03 15:47:00,91.9,54.1,29.67,West,273,0.0,0.0,28,0.00,,,0.01,meteohub,2013-07-03 21:47:00,
2013-07-03 15:52:00,91.2,54.5,29.67,West,272,0.0,0.0,29,0.00,,,0.01,meteohub,2013-07-03 21:52:00,
2013-07-03 15:57:00,91.8,53.1,29.66,ESE,103,0.0,0.0,27,0.00,,,0.01,meteohub,2013-07-03 21:57:00,
2013-07-03 16:02:00,92.1,53.4,29.66,ESE,104,0.0,0.0,27,0.00,,,0.01,meteohub,2013-07-03 22:02:00,
2013-07-03 16:07:00,92.8,54.9,29.65,WSW,243,0.0,0.0,28,0.00,,,0.01,meteohub,2013-07-03 22:07:00,
2013-07-03 16:12:00,92.8,54.9,29.65,West,259,0.0,0.0,28,0.00,,,0.01,meteohub,2013-07-03 22:12:00,
2013-07-03 16:20:00,93.2,53.2,29.65,East,87,0.0,0.0,26,0.00,,,0.01,meteohub,2013-07-03 22:20:00,
2013-07-03 16:25:00,92.3,52.5,29.64,East,98,0.0,0.0,26,0.00,,,0.01,meteohub,2013-07-03 22:25:00,
2013-07-03 16:32:00,92.3,53.4,29.64,ESE,109,0.0,0.0,27,0.00,,,0.01,meteohub,2013-07-03 22:32:00,
2013-07-03 16:38:00,92.7,52.7,29.62,SSW,201,0.0,0.0,26,0.00,,,0.01,meteohub,2013-07-03 22:38:00,
2013-07-03 16:45:00,92.5,52.5,29.62,SSW,198,0.0,0.0,26,0.00,,,0.01,meteohub,2013-07-03 22:45:00,
2013-07-03 16:50:00,92.5,52.5,29.62,SSW,207,0.0,0.0,26,0.00,,,0.01,meteohub,2013-07-03 22:50:00,
2013-07-03 16:55:00,92.1,54.3,29.62,West,267,0.0,0.0,28,0.00,,,0.01,meteohub,2013-07-03 22:55:00,
2013-07-03 17:00:00,92.5,52.5,29.62,East,88,0.0,0.0,26,0.00,,,0.01,meteohub,2013-07-03 23:00:00,
2013-07-03 17:07:00,92.1,52.3,29.62,East,89,0.0,0.0,26,0.00,,,0.01,meteohub,2013-07-03 23:07:00,
2013-07-03 17:12:00,93.0,53.1,29.62,East,89,0.0,0.0,26,0.00,,,0.01,meteohub,2013-07-03 23:12:00,
2013-07-03 17:17:00,93.6,52.5,29.61,NE,38,0.0,0.0,25,0.00,,,0.01,meteohub,2013-07-03 23:17:00,
2013-07-03 17:22:00,93.6,52.5,29.61,ESE,103,0.0,0.0,25,0.00,,,0.01,meteohub,2013-07-03 23:22:00,
2013-07-03 17:28:00,93.7,53.6,29.61,ESE,103,0.0,0.0,26,0.00,,,0.01,meteohub,2013-07-03 23:28:00,
2013-07-03 17:33:00,94.3,53.1,29.61,ESE,103,0.0,0.0,25,0.00,,,0.01,meteohub,2013-07-03 23:33:00,
2013-07-03 17:38:00,93.7,52.5,29.61,SW,229,0.0,0.0,25,0.00,,,0.01,meteohub,2013-07-03 23:38:00,
2013-07-03 17:43:00,93.6,52.5,29.61,ESE,104,0.0,0.0,25,0.00,,,0.01,meteohub,2013-07-03 23:43:00,
2013-07-03 17:48:00,93.0,52.0,29.61,ESE,120,0.0,0.0,25,0.00,,,0.01,meteohub,2013-07-03 23:48:00,
2013-07-03 17:57:00,93.0,52.0,29.60,SE,126,0.0,0.0,25,0.00,,,0.01,meteohub,2013-07-03 23:57:00,
2013-07-03 18:02:00,93.6,52.5,29.60,SE,146,0.0,0.0,25,0.00,,,0.01,meteohub,2013-07-04 00:02:00,
2013-07-03 18:07:00,93.7,51.4,29.60,SSW,207,0.0,0.0,24,0.00,,,0.01,meteohub,2013-07-04 00:07:00,
2013-07-03 18:12:00,93.9,51.6,29.60,SSW,207,0.0,0.0,24,0.00,,,0.01,meteohub,2013-07-04 00:12:00,
2013-07-03 18:17:00,93.4,51.3,29.60,ESE,104,0.0,0.0,24,0.00,,,0.01,meteohub,2013-07-04 00:17:00,
2013-07-03 18:22:00,93.2,52.2,29.60,ESE,104,0.0,0.0,25,0.00,,,0.01,meteohub,2013-07-04 00:22:00,
2013-07-03 18:27:00,93.0,52.0,29.60,ESE,104,0.0,0.0,25,0.00,,,0.01,meteohub,2013-07-04 00:27:00,
2013-07-03 18:34:00,92.5,52.5,29.60,ESE,108,0.0,0.0,26,0.00,,,0.01,meteohub,2013-07-04 00:34:00,
2013-07-03 18:40:00,91.6,52.9,29.60,ESE,109,0.0,0.0,27,0.00,,,0.01,meteohub,2013-07-04 00:40:00,
2013-07-03 18:45:00,91.2,52.5,29.60,ESE,109,0.0,0.0,27,0.00,,,0.01,meteohub,2013-07-04 00:45:00,
2013-07-03 18:51:00,91.0,52.3,29.60,ESE,106,0.0,0.0,27,0.00,,,0.01,meteohub,2013-07-04 00:51:00,
2013-07-03 18:56:00,90.1,53.6,29.60,South,178,0.0,0.0,29,0.00,,,0.01,meteohub,2013-07-04 00:56:00,
2013-07-03 19:03:00,89.8,52.3,29.60,South,188,0.0,0.0,28,0.00,,,0.01,meteohub,2013-07-04 01:03:00,
2013-07-03 19:09:00,89.4,53.1,29.60,South,188,0.0,0.0,29,0.00,,,0.01,meteohub,2013-07-04 01:09:00,
2013-07-03 19:16:00,89.1,52.7,29.61,SSW,193,0.0,0.0,29,0.00,,,0.01,meteohub,2013-07-04 01:16:00,
2013-07-03 19:22:00,88.7,52.3,29.61,SSW,194,0.0,0.0,29,0.00,,,0.01,meteohub,2013-07-04 01:22:00,
2013-07-03 19:27:00,88.5,52.2,29.61,SSW,193,0.0,0.0,29,0.00,,,0.01,meteohub,2013-07-04 01:27:00,
2013-07-03 19:33:00,88.3,52.0,29.61,SSW,193,0.0,0.0,29,0.00,,,0.01,meteohub,2013-07-04 01:33:00,
2013-07-03 19:40:00,88.2,52.0,29.62,SSW,192,0.0,0.0,29,0.00,,,0.01,meteohub,2013-07-04 01:40:00,
2013-07-03 19:45:00,88.0,52.7,29.61,SSW,192,0.0,0.0,30,0.00,,,0.01,meteohub,2013-07-04 01:45:00,
2013-07-03 19:51:00,87.8,52.5,29.61,SSW,192,0.0,0.0,30,0.00,,,0.01,meteohub,2013-07-04 01:51:00,
2013-07-03 19:56:00,87.6,52.3,29.61,SSW,192,0.0,0.0,30,0.00,,,0.01,meteohub,2013-07-04 01:56:00,
2013-07-03 20:01:00,87.4,53.1,29.61,South,191,0.0,0.0,31,0.00,,,0.01,meteohub,2013-07-04 02:01:00,
2013-07-03 20:08:00,87.3,52.9,29.61,South,191,0.0,0.0,31,0.00,,,0.01,meteohub,2013-07-04 02:08:00,
2013-07-03 20:16:00,86.7,53.4,29.62,South,191,0.0,0.0,32,0.00,,,0.01,meteohub,2013-07-04 02:16:00,
2013-07-03 20:22:00,86.2,53.8,29.62,South,191,0.0,0.0,33,0.00,,,0.01,meteohub,2013-07-04 02:22:00,
2013-07-03 20:27:00,85.8,53.4,29.62,South,191,0.0,0.0,33,0.00,,,0.01,meteohub,2013-07-04 02:27:00,
2013-07-03 20:32:00,85.6,53.2,29.62,South,191,0.0,0.0,33,0.00,,,0.01,meteohub,2013-07-04 02:32:00,
2013-07-03 20:37:00,86.0,50.9,29.62,East,97,0.0,0.0,30,0.00,,,0.01,meteohub,2013-07-04 02:37:00,
2013-07-03 20:42:00,86.7,50.7,29.62,East,87,0.0,0.0,29,0.00,,,0.01,meteohub,2013-07-04 02:42:00,
2013-07-03 20:50:00,87.1,50.9,29.62,East,91,0.0,0.0,29,0.00,,,0.01,meteohub,2013-07-04 02:50:00,
2013-07-03 20:55:00,87.4,50.4,29.63,East,92,0.0,0.0,28,0.00,,,0.01,meteohub,2013-07-04 02:55:00,
2013-07-03 21:02:00,87.4,50.4,29.63,ESE,109,0.0,0.0,28,0.00,,,0.01,meteohub,2013-07-04 03:02:00,
2013-07-03 21:07:00,87.4,50.4,29.64,South,191,0.0,0.0,28,0.00,,,0.01,meteohub,2013-07-04 03:07:00,
2013-07-03 21:14:00,87.4,51.3,29.64,SSW,192,0.0,0.0,29,0.00,,,0.01,meteohub,2013-07-04 03:14:00,
2013-07-03 21:19:00,86.2,54.5,29.65,West,277,0.0,0.0,34,0.00,,,0.01,meteohub,2013-07-04 03:19:00,
2013-07-03 21:24:00,85.3,57.6,29.69,West,264,0.0,0.0,39,0.00,,,0.01,meteohub,2013-07-04 03:24:00,
2013-07-03 21:32:00,82.9,58.8,29.69,NE,44,0.0,0.0,44,0.00,,,0.01,meteohub,2013-07-04 03:32:00,
2013-07-03 21:37:00,79.9,59.0,29.72,WNW,286,0.0,0.0,49,0.01,,,0.01,meteohub,2013-07-04 03:37:00,
2013-07-03 21:46:00,77.2,54.9,29.71,West,262,0.0,0.0,46,0.03,,,0.04,meteohub,2013-07-04 03:46:00,
2013-07-03 21:51:00,75.7,55.2,29.71,West,269,0.0,0.0,49,0.05,,,0.06,meteohub,2013-07-04 03:51:00,
2013-07-03 21:57:00,74.8,54.3,29.68,East,88,0.0,0.0,49,0.06,,,0.07,meteohub,2013-07-04 03:57:00,
2013-07-03 22:01:00,75.2,54.1,29.66,SE,129,0.0,0.0,48,0.07,,,0.08,meteohub,2013-07-04 04:01:00,
2013-07-03 22:02:00,75.4,54.9,29.65,East,99,0.0,0.0,49,0.07,,,0.08,meteohub,2013-07-04 04:02:00,
2013-07-03 22:04:00,75.4,54.9,29.65,East,92,0.0,0.0,49,0.07,,,0.08,meteohub,2013-07-04 04:04:00,
2013-07-03 22:09:00,76.5,51.6,29.66,East,93,0.0,0.0,42,0.07,,,0.08,meteohub,2013-07-04 04:09:00,
2013-07-03 22:14:00,78.4,49.3,29.68,East,97,0.0,0.0,36,0.07,,,0.08,meteohub,2013-07-04 04:14:00,
2013-07-03 22:19:00,79.2,53.4,29.68,SSW,198,0.0,0.0,41,0.07,,,0.08,meteohub,2013-07-04 04:19:00,
2013-07-03 22:24:00,78.6,51.6,29.71,East,99,0.0,0.0,39,0.07,,,0.08,meteohub,2013-07-04 04:24:00,
2013-07-03 22:29:00,78.4,56.5,29.73,East,96,0.0,0.0,47,0.07,,,0.08,meteohub,2013-07-04 04:29:00,
2013-07-03 22:34:00,77.2,58.3,29.73,East,95,0.0,0.0,52,0.07,,,0.08,meteohub,2013-07-04 04:34:00,
2013-07-03 22:40:00,75.9,57.6,29.73,East,86,0.0,0.0,53,0.06,,,0.08,meteohub,2013-07-04 04:40:00,
2013-07-03 22:45:00,75.2,56.8,29.68,ENE,78,0.0,0.0,53,0.03,,,0.08,meteohub,2013-07-04 04:45:00,
2013-07-03 22:50:00,75.4,56.5,29.69,ENE,67,0.0,0.0,52,0.03,,,0.09,meteohub,2013-07-04 04:50:00,
2013-07-03 22:55:00,74.8,55.0,29.69,East,88,0.0,0.0,50,0.01,,,0.09,meteohub,2013-07-04 04:55:00,
2013-07-03 23:00:00,75.0,53.4,29.70,NE,49,0.0,0.0,47,0.01,,,0.09,meteohub,2013-07-04 05:00:00,
2013-07-03 23:05:00,75.9,52.5,29.70,ENE,66,0.0,0.0,44,0.01,,,0.09,meteohub,2013-07-04 05:05:00,
2013-07-03 23:10:00,76.8,52.7,29.70,SE,126,0.0,0.0,43,0.01,,,0.09,meteohub,2013-07-04 05:10:00,
2013-07-03 23:15:00,77.0,51.4,29.68,East,93,0.0,0.0,41,0.01,,,0.09,meteohub,2013-07-04 05:15:00,
2013-07-03 23:21:00,77.2,51.6,29.68,East,88,0.0,0.0,41,0.01,,,0.09,meteohub,2013-07-04 05:21:00,
2013-07-03 23:26:00,77.2,52.3,29.67,ESE,107,0.0,0.0,42,0.01,,,0.09,meteohub,2013-07-04 05:26:00,
2013-07-03 23:31:00,77.0,52.9,29.67,ESE,107,0.0,0.0,43,0.01,,,0.09,meteohub,2013-07-04 05:31:00,
2013-07-03 23:36:00,76.6,53.8,29.66,ESE,108,0.0,0.0,45,0.01,,,0.09,meteohub,2013-07-04 05:36:00,
2013-07-03 23:41:00,76.3,54.0,29.66,ESE,108,0.0,0.0,46,0.01,,,0.09,meteohub,2013-07-04 05:41:00,
2013-07-03 23:46:00,75.9,54.3,29.65,SW,234,0.0,0.0,47,0.00,,,0.09,meteohub,2013-07-04 05:46:00,
2013-07-03 23:52:00,75.6,54.0,29.65,West,268,0.0,0.0,47,0.00,,,0.09,meteohub,2013-07-04 05:52:00,
2013-07-03 23:57:00,75.2,53.6,29.67,West,260,0.0,0.0,47,0.00,,,0.09,meteohub,2013-07-04 05:57:00,